Terminal Aerodrome Forecast
Issued by NWS

Home | Current Version | Previous Version | Text Only | Print | Product List | Glossary On
Versions: 1 2 3 4 5 6 7 8 9 10 11 12
000
FTUS44 KBMX 242341
TAFEET
TAF
KEET 242341Z 2500/2524 09003KT P6SM SKC
     FM250400 13005KT P6SM VCSH BKN050 OVC100
     FM251100 14007KT P6SM VCSH OVC015
     FM251500 16008KT P6SM VCTS BKN025CB=

USA.gov is the U.S. government's official web portal to all federal, state and local government web resources and services.